createdAt,value
2018-03-27T00:00:01.653Z,77.63
2018-03-27T00:02:29.250Z,78.03
2018-03-27T00:04:56.899Z,78.03
2018-03-27T00:07:24.525Z,78.34
2018-03-27T00:09:52.232Z,78.78
2018-03-27T00:12:19.832Z,79.04
2018-03-27T00:14:47.502Z,79.28
2018-03-27T00:17:15.114Z,79.62
2018-03-27T00:19:42.878Z,79.97
2018-03-27T00:22:10.498Z,80.37
2018-03-27T00:24:41.910Z,80.33
2018-03-27T00:27:08.965Z,79.94
2018-03-27T00:29:48.367Z,79.90
2018-03-27T00:32:27.667Z,80.41
2018-03-27T00:35:06.999Z,80.67
2018-03-27T00:37:46.250Z,80.62
2018-03-27T00:40:25.403Z,80.78
2018-03-27T00:42:54.650Z,80.54
2018-03-27T00:45:22.279Z,80.53
2018-03-27T00:47:49.884Z,80.47
2018-03-27T00:50:17.502Z,80.49
2018-03-27T00:52:45.202Z,80.83
2018-03-27T00:55:12.849Z,80.80
2018-03-27T00:57:40.490Z,80.54
2018-03-27T01:00:08.093Z,80.82
2018-03-27T01:02:35.722Z,81.01
2018-03-27T01:05:08.949Z,80.87
2018-03-27T01:07:36.575Z,80.59
2018-03-27T01:10:04.166Z,80.42
2018-03-27T01:12:31.808Z,80.47
2018-03-27T01:14:59.422Z,80.68
2018-03-27T01:17:27.139Z,80.87
2018-03-27T01:19:54.742Z,81.01
2018-03-27T01:22:22.372Z,81.14
2018-03-27T01:24:49.966Z,81.19
2018-03-27T01:27:17.710Z,81.11
2018-03-27T01:29:45.307Z,81.00
2018-03-27T01:32:12.935Z,81.00
2018-03-27T01:34:40.561Z,81.01
2018-03-27T01:37:08.227Z,80.81
2018-03-27T01:39:35.884Z,80.51
2018-03-27T01:42:03.498Z,80.69
2018-03-27T01:44:31.118Z,81.24
2018-03-27T01:46:58.719Z,81.43
2018-03-27T01:49:26.394Z,81.68
2018-03-27T01:51:54.013Z,81.81
2018-03-27T01:54:21.650Z,81.52
2018-03-27T01:56:49.238Z,81.24
2018-03-27T01:59:16.891Z,81.72
2018-03-27T02:01:44.492Z,81.82
2018-03-27T02:04:12.138Z,81.73
2018-03-27T02:06:39.746Z,81.89
2018-03-27T02:09:07.395Z,81.63
2018-03-27T02:11:40.364Z,81.14
2018-03-27T02:14:13.503Z,81.39
2018-03-27T02:16:46.466Z,81.20
2018-03-27T02:19:19.578Z,81.17
2018-03-27T02:21:46.599Z,81.26
2018-03-27T02:24:15.030Z,81.29
2018-03-27T02:26:42.638Z,81.49
2018-03-27T02:29:10.247Z,82.40
2018-03-27T02:31:37.892Z,82.90
2018-03-27T02:34:05.501Z,82.80
2018-03-27T02:36:33.262Z,83.06
2018-03-27T02:39:00.905Z,83.23
2018-03-27T02:41:28.582Z,83.18
2018-03-27T02:43:56.207Z,82.90
2018-03-27T02:46:23.858Z,82.92
2018-03-27T02:48:51.460Z,82.94
2018-03-27T02:51:19.099Z,83.19
2018-03-27T02:53:46.692Z,83.39
2018-03-27T02:56:14.332Z,83.24
2018-03-27T02:58:41.944Z,82.64
2018-03-27T03:01:09.615Z,82.42
2018-03-27T03:03:37.288Z,82.83
2018-03-27T03:06:04.973Z,83.39
2018-03-27T03:08:32.611Z,84.25
2018-03-27T03:11:00.244Z,84.79
2018-03-27T03:13:27.844Z,84.50
2018-03-27T03:15:55.480Z,84.15
2018-03-27T03:18:23.080Z,83.50
2018-03-27T03:20:50.834Z,83.55
2018-03-27T03:23:18.486Z,83.77
2018-03-27T03:25:46.091Z,84.29
2018-03-27T03:28:13.737Z,85.02
2018-03-27T03:30:41.351Z,85.29
2018-03-27T03:33:09.004Z,84.77
2018-03-27T03:35:36.611Z,84.02
2018-03-27T03:38:04.263Z,83.69
2018-03-27T03:40:31.864Z,83.60
2018-03-27T03:42:59.508Z,84.33
2018-03-27T03:45:27.115Z,84.82
2018-03-27T03:47:54.759Z,84.71
2018-03-27T03:50:22.386Z,84.55
2018-03-27T03:52:50.107Z,85.68
2018-03-27T03:55:17.714Z,87.83
2018-03-27T03:57:45.350Z,90.04
2018-03-27T04:00:12.979Z,90.99
2018-03-27T04:02:40.614Z,90.68
2018-03-27T04:05:08.211Z,89.74
2018-03-27T04:07:35.871Z,88.52
2018-03-27T04:10:03.458Z,88.06
2018-03-27T04:12:31.139Z,89.23
2018-03-27T04:14:58.750Z,90.02
2018-03-27T04:17:26.443Z,90.44
2018-03-27T04:19:54.109Z,90.11
2018-03-27T04:22:21.751Z,89.46
2018-03-27T04:24:49.395Z,89.00
2018-03-27T04:27:17.019Z,87.66
2018-03-27T04:29:44.712Z,87.22
2018-03-27T04:32:12.351Z,87.79
2018-03-27T04:34:40.010Z,88.54
2018-03-27T04:37:07.613Z,89.72
2018-03-27T04:39:35.259Z,90.12
2018-03-27T04:42:02.891Z,91.45
2018-03-27T04:44:30.641Z,92.57
2018-03-27T04:46:58.258Z,92.92
2018-03-27T04:49:25.905Z,92.99
2018-03-27T04:51:53.498Z,93.06
2018-03-27T04:54:21.171Z,93.76
2018-03-27T04:56:48.747Z,94.08
2018-03-27T04:59:16.384Z,93.92
2018-03-27T05:01:44.013Z,93.62
2018-03-27T05:04:11.771Z,92.96
2018-03-27T05:06:39.395Z,91.90
2018-03-27T05:09:07.058Z,93.44
2018-03-27T05:11:34.736Z,94.74
2018-03-27T05:14:02.358Z,95.64
2018-03-27T05:16:29.997Z,95.95
2018-03-27T05:18:57.693Z,96.36
2018-03-27T05:21:25.419Z,96.96
2018-03-27T05:23:53.098Z,95.83
2018-03-27T05:26:20.727Z,95.88
2018-03-27T05:28:48.459Z,95.91
2018-03-27T05:31:16.122Z,95.96
2018-03-27T05:33:43.735Z,95.84
2018-03-27T05:36:11.392Z,95.72
2018-03-27T05:38:39.203Z,95.26
2018-03-27T05:41:06.805Z,94.70
2018-03-27T05:43:34.428Z,93.79
2018-03-27T05:46:02.090Z,92.88
2018-03-27T05:48:29.687Z,92.13
2018-03-27T05:50:57.736Z,91.55
2018-03-27T05:53:25.370Z,91.30
2018-03-27T05:55:53.055Z,90.83
2018-03-27T05:58:20.677Z,90.33
2018-03-27T06:00:48.388Z,89.96
2018-03-27T06:03:15.979Z,89.84
2018-03-27T06:05:43.751Z,89.54
2018-03-27T06:08:11.352Z,88.70
2018-03-27T06:10:38.954Z,88.38
2018-03-27T06:13:06.625Z,88.23
2018-03-27T06:15:34.322Z,88.27
2018-03-27T06:18:02.023Z,88.18
2018-03-27T06:20:29.625Z,88.31
2018-03-27T06:22:57.252Z,88.83
2018-03-27T06:25:24.853Z,88.96
2018-03-27T06:27:52.583Z,88.81
2018-03-27T06:30:20.175Z,88.87
2018-03-27T06:32:47.867Z,88.90
2018-03-27T06:35:15.474Z,89.27
2018-03-27T06:37:43.103Z,89.76
2018-03-27T06:40:10.708Z,90.04
2018-03-27T06:42:38.370Z,90.50
2018-03-27T06:45:05.971Z,90.82
2018-03-27T06:47:33.651Z,91.07
2018-03-27T06:50:01.214Z,91.26
2018-03-27T06:52:28.842Z,91.34
2018-03-27T06:54:56.481Z,92.32
2018-03-27T06:57:24.228Z,92.61
2018-03-27T06:59:51.836Z,92.96
2018-03-27T07:02:19.430Z,93.33
2018-03-27T07:04:47.074Z,93.42
2018-03-27T07:07:14.764Z,93.13
2018-03-27T07:09:42.407Z,93.08
2018-03-27T07:12:10.015Z,93.29
2018-03-27T07:14:37.642Z,93.09
2018-03-27T07:17:05.242Z,92.60
2018-03-27T07:19:32.911Z,92.36
2018-03-27T07:22:00.506Z,92.25
2018-03-27T07:24:28.133Z,92.37
2018-03-27T07:26:55.762Z,92.27
2018-03-27T07:29:23.367Z,92.12
2018-03-27T07:31:50.977Z,91.68
2018-03-27T07:34:18.655Z,91.26
2018-03-27T07:36:46.271Z,89.96
2018-03-27T07:39:13.906Z,89.54
2018-03-27T07:41:41.494Z,89.66
2018-03-27T07:44:09.151Z,89.33
2018-03-27T07:46:36.780Z,88.59
2018-03-27T07:49:06.155Z,87.87
2018-03-27T07:51:33.770Z,87.34
2018-03-27T07:54:01.358Z,86.61
2018-03-27T07:56:29.092Z,86.87
2018-03-27T07:58:56.691Z,87.05
2018-03-27T08:01:24.500Z,86.55
2018-03-27T08:03:52.171Z,86.42
2018-03-27T08:06:19.923Z,86.50
2018-03-27T08:08:47.555Z,85.67
2018-03-27T08:11:15.255Z,84.80
2018-03-27T08:13:42.870Z,85.24
2018-03-27T08:16:10.510Z,84.37
2018-03-27T08:18:38.125Z,84.05
2018-03-27T08:21:05.880Z,83.58
2018-03-27T08:23:33.493Z,82.56
2018-03-27T08:26:01.178Z,81.43
2018-03-27T08:28:28.800Z,80.93
2018-03-27T08:30:56.619Z,82.13
2018-03-27T08:33:24.224Z,82.00
2018-03-27T08:35:51.875Z,81.89
2018-03-27T08:38:19.486Z,81.01
2018-03-27T08:40:47.114Z,81.04
2018-03-27T08:43:14.768Z,81.22
2018-03-27T08:45:42.387Z,80.12
2018-03-27T08:48:10.051Z,80.00
2018-03-27T08:50:37.657Z,80.95
2018-03-27T08:53:05.322Z,80.10
2018-03-27T08:55:32.943Z,78.98
2018-03-27T08:58:00.672Z,79.12
2018-03-27T09:00:28.267Z,79.24
2018-03-27T09:02:55.911Z,78.47
2018-03-27T09:05:23.574Z,77.91
2018-03-27T09:07:51.203Z,76.80
2018-03-27T09:10:18.827Z,74.93
2018-03-27T09:12:46.599Z,73.85
2018-03-27T09:15:14.429Z,73.83
2018-03-27T09:17:42.012Z,73.84
2018-03-27T09:20:09.623Z,72.87
2018-03-27T09:22:37.294Z,73.87
2018-03-27T09:25:04.899Z,72.00
2018-03-27T09:27:32.724Z,71.63
2018-03-27T09:30:00.342Z,71.74
2018-03-27T09:32:28.031Z,72.17
2018-03-27T09:34:55.630Z,69.70
2018-03-27T09:37:23.264Z,66.92
2018-03-27T09:39:50.967Z,66.75
2018-03-27T09:42:18.575Z,66.01
2018-03-27T09:44:46.206Z,66.74
2018-03-27T09:47:13.850Z,65.44
2018-03-27T09:49:41.495Z,64.20
2018-03-27T09:52:09.098Z,66.07
2018-03-27T09:54:36.757Z,63.03
2018-03-27T09:57:04.368Z,62.54
2018-03-27T09:59:32.020Z,61.16
2018-03-27T10:01:59.604Z,59.80
2018-03-27T10:04:27.234Z,62.13
2018-03-27T10:06:54.855Z,61.86
2018-03-27T10:09:22.554Z,61.53
2018-03-27T10:11:50.166Z,61.97
2018-03-27T10:14:17.822Z,60.88
2018-03-27T10:16:45.430Z,61.26
2018-03-27T10:19:13.099Z,60.95
2018-03-27T10:21:40.720Z,59.01
2018-03-27T10:24:08.355Z,58.60
2018-03-27T10:26:35.961Z,58.08
2018-03-27T10:29:03.558Z,57.11
2018-03-27T10:31:31.220Z,56.04
2018-03-27T10:33:58.882Z,57.00
2018-03-27T10:36:26.552Z,54.64
2018-03-27T10:38:54.160Z,53.94
2018-03-27T10:41:21.816Z,50.53
2018-03-27T10:43:49.427Z,48.52
2018-03-27T10:46:17.169Z,48.23
2018-03-27T10:48:44.772Z,48.67
2018-03-27T10:51:12.656Z,48.68
2018-03-27T10:53:40.256Z,49.12
2018-03-27T10:56:07.906Z,48.40
2018-03-27T10:58:35.530Z,49.55
2018-03-27T11:01:03.173Z,49.28
2018-03-27T11:03:30.882Z,48.17
2018-03-27T11:05:58.527Z,48.41
2018-03-27T11:08:26.142Z,47.84
2018-03-27T11:10:53.788Z,47.55
2018-03-27T11:13:21.466Z,47.48
2018-03-27T11:15:49.147Z,48.19
2018-03-27T11:18:16.757Z,48.86
2018-03-27T11:20:44.390Z,49.81
2018-03-27T11:23:12.099Z,50.24
2018-03-27T11:25:39.728Z,51.86
2018-03-27T11:28:07.371Z,52.09
2018-03-27T11:30:34.969Z,52.14
2018-03-27T11:33:02.635Z,53.18
2018-03-27T11:35:30.258Z,52.90
2018-03-27T11:37:57.925Z,52.98
2018-03-27T11:40:25.544Z,53.22
2018-03-27T11:42:53.193Z,51.19
2018-03-27T11:45:20.825Z,51.84
2018-03-27T11:47:48.541Z,51.91
2018-03-27T11:50:16.200Z,52.32
2018-03-27T11:52:43.842Z,51.71
2018-03-27T11:55:11.473Z,50.41
2018-03-27T11:57:39.125Z,49.26
2018-03-27T12:00:06.915Z,49.85
2018-03-27T12:02:40.868Z,50.40
2018-03-27T12:05:10.811Z,50.25
2018-03-27T12:07:38.486Z,49.99
2018-03-27T12:10:06.133Z,50.80
2018-03-27T12:12:34.242Z,51.78
2018-03-27T12:15:01.871Z,51.91
2018-03-27T12:17:29.507Z,51.92
2018-03-27T12:19:57.275Z,52.71
2018-03-27T12:22:24.936Z,52.28
2018-03-27T12:24:52.598Z,52.51
2018-03-27T12:27:21.316Z,52.38
2018-03-27T12:29:49.100Z,52.84
2018-03-27T12:32:16.722Z,52.64
2018-03-27T12:34:44.366Z,53.24
2018-03-27T12:37:11.961Z,53.08
2018-03-27T12:39:39.622Z,53.31
2018-03-27T12:42:07.228Z,54.06
2018-03-27T12:44:34.874Z,54.66
2018-03-27T12:47:02.534Z,54.33
2018-03-27T12:49:30.202Z,54.72
2018-03-27T12:51:57.819Z,55.06
2018-03-27T12:54:25.496Z,55.23
2018-03-27T12:56:53.103Z,55.52
2018-03-27T12:59:20.833Z,55.68
2018-03-27T13:01:48.512Z,56.20
2018-03-27T13:04:16.164Z,56.63
2018-03-27T13:06:43.788Z,57.00
2018-03-27T13:09:11.391Z,57.25
2018-03-27T13:11:39.071Z,58.03
2018-03-27T13:14:06.727Z,57.84
2018-03-27T13:16:34.394Z,57.88
2018-03-27T13:19:02.005Z,58.21
2018-03-27T13:21:29.663Z,58.27
2018-03-27T13:23:57.315Z,58.69
2018-03-27T13:26:24.955Z,59.68
2018-03-27T13:28:52.562Z,59.69
2018-03-27T13:31:20.210Z,60.63
2018-03-27T13:33:47.834Z,61.99
2018-03-27T13:36:15.470Z,63.61
2018-03-27T13:38:43.079Z,65.04
2018-03-27T13:41:10.745Z,66.02
2018-03-27T13:43:38.387Z,65.52
2018-03-27T13:46:06.080Z,66.15
2018-03-27T13:48:33.683Z,66.97
2018-03-27T13:51:01.316Z,67.15
2018-03-27T13:53:28.917Z,67.16
2018-03-27T13:55:56.596Z,67.56
2018-03-27T13:58:24.252Z,67.95
2018-03-27T14:00:52.088Z,68.82
2018-03-27T14:03:19.701Z,69.45
2018-03-27T14:05:47.298Z,70.10
2018-03-27T14:08:15.134Z,71.12
2018-03-27T14:10:42.754Z,71.43
2018-03-27T14:13:10.426Z,71.51
2018-03-27T14:15:38.087Z,71.62
2018-03-27T14:18:07.450Z,71.46
2018-03-27T14:20:35.086Z,71.48
2018-03-27T14:23:02.852Z,72.01
2018-03-27T14:25:30.443Z,72.44
2018-03-27T14:27:58.108Z,73.55
2018-03-27T14:30:25.775Z,72.74
2018-03-27T14:32:53.408Z,72.96
2018-03-27T14:35:21.059Z,73.01
2018-03-27T14:37:48.706Z,73.74
2018-03-27T14:40:16.332Z,73.78
2018-03-27T14:42:43.980Z,73.86
2018-03-27T14:45:11.650Z,74.31
2018-03-27T14:47:39.306Z,74.71
2018-03-27T14:50:06.931Z,74.85
2018-03-27T14:52:34.651Z,75.71
2018-03-27T14:55:02.285Z,75.55
2018-03-27T14:57:29.930Z,75.75
2018-03-27T14:59:57.536Z,75.28
2018-03-27T15:02:25.150Z,74.85
2018-03-27T15:04:52.858Z,75.38
2018-03-27T15:07:20.454Z,75.21
2018-03-27T15:09:48.089Z,75.46
2018-03-27T15:12:15.692Z,74.50
2018-03-27T15:14:43.359Z,75.88
2018-03-27T15:17:11.008Z,77.08
2018-03-27T15:19:38.782Z,78.54
2018-03-27T15:22:06.382Z,80.40
2018-03-27T15:24:34.026Z,79.31
2018-03-27T15:27:01.671Z,79.52
2018-03-27T15:29:29.312Z,82.01
2018-03-27T15:31:57.009Z,81.85
2018-03-27T15:34:24.672Z,82.53
2018-03-27T15:36:52.297Z,83.99
2018-03-27T15:39:20.080Z,84.69
2018-03-27T15:41:47.678Z,85.40
2018-03-27T15:44:15.353Z,85.41
2018-03-27T15:46:42.965Z,86.41
2018-03-27T15:49:10.613Z,88.35
2018-03-27T15:51:38.209Z,88.37
2018-03-27T15:54:05.831Z,88.03
2018-03-27T15:56:33.490Z,87.93
2018-03-27T15:59:01.087Z,89.20
2018-03-27T16:01:28.758Z,87.88
2018-03-27T16:03:56.362Z,88.85
2018-03-27T16:06:24.003Z,88.62
2018-03-27T16:08:51.842Z,90.00
2018-03-27T16:11:19.513Z,90.13
2018-03-27T16:13:47.123Z,91.03
2018-03-27T16:16:14.931Z,90.96
2018-03-27T16:18:42.538Z,91.46
2018-03-27T16:21:10.158Z,91.22
2018-03-27T16:23:37.791Z,91.77
2018-03-27T16:26:05.557Z,92.18
2018-03-27T16:28:33.164Z,92.85
2018-03-27T16:31:00.883Z,93.60
2018-03-27T16:33:28.480Z,93.59
2018-03-27T16:35:56.131Z,94.31
2018-03-27T16:38:23.798Z,94.16
2018-03-27T16:40:51.459Z,94.86
2018-03-27T16:43:19.051Z,95.30
2018-03-27T16:45:46.666Z,96.02
2018-03-27T16:48:14.309Z,96.58
2018-03-27T16:50:41.944Z,96.44
2018-03-27T16:53:09.595Z,93.19
2018-03-27T16:55:37.229Z,91.89
2018-03-27T16:58:04.883Z,89.94
2018-03-27T17:00:32.532Z,91.35
2018-03-27T17:03:00.215Z,92.20
2018-03-27T17:05:27.812Z,92.97
2018-03-27T17:07:55.453Z,93.71
2018-03-27T17:10:23.141Z,94.24
2018-03-27T17:12:50.842Z,94.42
2018-03-27T17:15:18.452Z,94.54
2018-03-27T17:17:46.195Z,94.99
2018-03-27T17:20:13.789Z,95.34
2018-03-27T17:22:41.415Z,95.81
2018-03-27T17:25:09.171Z,94.94
2018-03-27T17:27:36.812Z,95.43
2018-03-27T17:30:04.438Z,95.74
2018-03-27T17:32:32.064Z,96.82
2018-03-27T17:34:59.681Z,96.20
2018-03-27T17:37:27.445Z,96.65
2018-03-27T17:39:55.055Z,97.54
2018-03-27T17:42:22.660Z,97.45
2018-03-27T17:44:50.305Z,98.07
2018-03-27T17:47:17.940Z,99.00
2018-03-27T17:49:45.575Z,100.00
2018-03-27T17:52:13.198Z,100.00
2018-03-27T17:54:40.835Z,100.00
2018-03-27T17:57:08.421Z,100.00
2018-03-27T17:59:36.102Z,100.00
2018-03-27T18:02:03.801Z,100.00
2018-03-27T18:04:31.431Z,100.00
2018-03-27T18:06:59.035Z,100.00
2018-03-27T18:09:26.866Z,100.00
2018-03-27T18:11:54.567Z,100.00
2018-03-27T18:14:22.255Z,100.00
2018-03-27T18:16:49.867Z,100.00
2018-03-27T18:19:17.630Z,100.00
2018-03-27T18:21:45.256Z,100.00
2018-03-27T18:24:12.915Z,100.00
2018-03-27T18:26:40.602Z,100.00
2018-03-27T18:29:08.287Z,100.00
2018-03-27T18:31:35.916Z,100.00
2018-03-27T18:34:03.513Z,100.00
2018-03-27T18:36:31.140Z,100.00
2018-03-27T18:38:58.767Z,100.00
2018-03-27T18:41:26.394Z,100.00
2018-03-27T18:43:54.002Z,100.00
2018-03-27T18:46:21.752Z,100.00
2018-03-27T18:48:49.384Z,100.00
2018-03-27T18:51:17.404Z,100.00
2018-03-27T18:53:45.023Z,100.00
2018-03-27T18:56:12.850Z,100.00
2018-03-27T18:58:40.467Z,100.00
2018-03-27T19:01:08.454Z,100.00
2018-03-27T19:03:36.069Z,100.00
2018-03-27T19:06:03.777Z,100.00
2018-03-27T19:08:31.357Z,100.00
2018-03-27T19:10:58.992Z,100.00
2018-03-27T19:13:26.596Z,100.00
2018-03-27T19:15:54.238Z,100.00
2018-03-27T19:18:21.842Z,100.00
2018-03-27T19:20:49.504Z,100.00
2018-03-27T19:23:17.177Z,100.00
2018-03-27T19:25:44.904Z,100.00
2018-03-27T19:28:12.514Z,100.00
2018-03-27T19:30:40.131Z,100.00
2018-03-27T19:33:07.757Z,100.00
2018-03-27T19:35:35.363Z,100.00
2018-03-27T19:38:03.108Z,100.00
2018-03-27T19:40:30.744Z,100.00
2018-03-27T19:42:58.373Z,100.00
2018-03-27T19:45:25.998Z,100.00
2018-03-27T19:47:53.653Z,100.00
2018-03-27T19:50:21.306Z,100.00
2018-03-27T19:52:48.975Z,100.00
2018-03-27T19:55:16.583Z,100.00
2018-03-27T19:57:44.244Z,100.00
2018-03-27T20:00:12.001Z,100.00
2018-03-27T20:02:39.647Z,100.00
2018-03-27T20:05:07.254Z,100.00
2018-03-27T20:07:34.899Z,100.00
2018-03-27T20:10:02.502Z,100.00
2018-03-27T20:12:30.132Z,100.00
2018-03-27T20:14:57.741Z,100.00
2018-03-27T20:17:25.431Z,100.00
2018-03-27T20:19:53.048Z,100.00
2018-03-27T20:22:20.650Z,100.00
2018-03-27T20:24:48.296Z,100.00
2018-03-27T20:27:15.872Z,100.00
2018-03-27T20:29:43.502Z,100.00
2018-03-27T20:32:11.113Z,100.00
2018-03-27T20:34:38.934Z,100.00
2018-03-27T20:37:06.559Z,100.00
2018-03-27T20:39:34.214Z,100.00
2018-03-27T20:42:01.804Z,100.00
2018-03-27T20:44:29.449Z,100.00
2018-03-27T20:46:57.174Z,100.00
2018-03-27T20:49:24.857Z,100.00
2018-03-27T20:51:52.471Z,100.00
2018-03-27T20:54:20.110Z,100.00
2018-03-27T20:56:47.726Z,100.00
2018-03-27T20:59:15.360Z,100.00
2018-03-27T21:01:43.066Z,100.00
2018-03-27T21:04:10.733Z,100.00
2018-03-27T21:06:38.346Z,100.00
2018-03-27T21:09:06.135Z,100.00
2018-03-27T21:11:33.844Z,100.00
2018-03-27T21:14:01.454Z,100.00
2018-03-27T21:16:29.094Z,100.00
2018-03-27T21:18:56.736Z,100.00
2018-03-27T21:21:24.418Z,100.00
2018-03-27T21:23:52.018Z,100.00
2018-03-27T21:26:19.646Z,100.00
2018-03-27T21:28:47.245Z,100.00
2018-03-27T21:31:14.915Z,100.00
2018-03-27T21:33:42.514Z,100.00
2018-03-27T21:36:10.214Z,100.00
2018-03-27T21:38:37.810Z,100.00
2018-03-27T21:41:05.430Z,100.00
2018-03-27T21:43:33.055Z,100.00
2018-03-27T21:46:00.736Z,100.00
2018-03-27T21:48:28.323Z,100.00
2018-03-27T21:50:56.039Z,100.00
2018-03-27T21:53:23.714Z,100.00
2018-03-27T21:55:51.354Z,100.00
2018-03-27T21:58:19.144Z,100.00
2018-03-27T22:00:46.775Z,100.00
2018-03-27T22:03:14.376Z,100.00
2018-03-27T22:05:42.014Z,100.00
2018-03-27T22:08:09.627Z,100.00
2018-03-27T22:10:37.333Z,100.00
2018-03-27T22:13:04.982Z,100.00
2018-03-27T22:15:32.598Z,100.00
2018-03-27T22:18:00.244Z,100.00
2018-03-27T22:20:27.871Z,100.00
2018-03-27T22:22:55.489Z,100.00
2018-03-27T22:25:23.101Z,100.00
2018-03-27T22:27:50.748Z,100.00
2018-03-27T22:30:18.351Z,100.00
2018-03-27T22:32:46.002Z,100.00
2018-03-27T22:35:13.590Z,100.00
2018-03-27T22:37:41.305Z,100.00
2018-03-27T22:40:08.889Z,100.00
2018-03-27T22:42:36.530Z,100.00
2018-03-27T22:45:04.127Z,100.00
2018-03-27T22:47:31.783Z,100.00
2018-03-27T22:49:59.369Z,100.00
2018-03-27T22:52:27.022Z,100.00
2018-03-27T22:54:54.624Z,100.00
2018-03-27T22:57:22.279Z,100.00
2018-03-27T22:59:49.874Z,100.00
2018-03-27T23:02:17.483Z,100.00
2018-03-27T23:04:45.156Z,100.00
2018-03-27T23:07:12.847Z,100.00
2018-03-27T23:09:40.480Z,100.00
2018-03-27T23:12:08.063Z,100.00
2018-03-27T23:14:35.708Z,100.00
2018-03-27T23:17:03.326Z,100.00
2018-03-27T23:19:30.944Z,100.00
2018-03-27T23:21:58.548Z,100.00
2018-03-27T23:24:26.202Z,100.00
2018-03-27T23:26:53.810Z,100.00
2018-03-27T23:29:21.470Z,100.00
2018-03-27T23:31:49.075Z,100.00
2018-03-27T23:34:16.717Z,100.00
2018-03-27T23:36:44.302Z,100.00
2018-03-27T23:39:11.938Z,100.00
2018-03-27T23:41:39.534Z,100.00
2018-03-27T23:44:07.202Z,100.00
2018-03-27T23:46:34.793Z,100.00
2018-03-27T23:49:02.430Z,100.00
2018-03-27T23:51:30.020Z,100.00
2018-03-27T23:53:57.659Z,100.00
2018-03-27T23:56:25.261Z,100.00
2018-03-27T23:58:52.935Z,100.00
